createdAt,value
2024-01-05T00:00:31.151Z,4.057
2024-01-05T00:01:31.011Z,4.075
2024-01-05T00:02:30.374Z,4.105
2024-01-05T00:03:30.937Z,4.091
2024-01-05T00:04:30.818Z,4.097
2024-01-05T00:05:31.413Z,4.107
2024-01-05T00:06:31.096Z,4.107
2024-01-05T00:07:30.643Z,4.110
2024-01-05T00:08:30.870Z,4.102
2024-01-05T00:09:31.461Z,4.129
2024-01-05T00:10:31.066Z,4.134
2024-01-05T00:11:31.306Z,4.155
2024-01-05T00:12:30.744Z,4.198
2024-01-05T00:13:31.148Z,4.147
2024-01-05T00:14:30.374Z,4.153
2024-01-05T00:15:31.080Z,4.145
2024-01-05T00:16:30.845Z,4.126
2024-01-05T00:17:31.160Z,4.131
2024-01-05T00:19:31.057Z,4.187
2024-01-05T00:20:31.347Z,4.201
2024-01-05T00:21:31.089Z,4.155
2024-01-05T00:22:30.483Z,4.147
2024-01-05T00:23:30.671Z,4.118
2024-01-05T00:24:31.167Z,4.123
2024-01-05T00:25:30.823Z,4.054
2024-01-05T00:26:31.055Z,4.081
2024-01-05T00:27:31.855Z,4.067
2024-01-05T00:28:31.250Z,4.070
2024-01-05T00:29:30.456Z,4.054
2024-01-05T00:30:31.181Z,3.990
2024-01-05T00:32:30.685Z,3.926
2024-01-05T00:33:31.749Z,3.896
2024-01-05T00:34:31.583Z,3.843
2024-01-05T00:35:30.748Z,3.840
2024-01-05T00:36:31.200Z,3.870
2024-01-05T00:37:30.850Z,3.859
2024-01-05T00:38:31.093Z,3.848
2024-01-05T00:39:30.500Z,3.851
2024-01-05T00:40:30.964Z,3.854
2024-01-05T00:41:31.178Z,3.830
2024-01-05T00:42:30.755Z,3.843
2024-01-05T00:43:31.107Z,3.771
2024-01-05T00:44:30.314Z,3.787
2024-01-05T00:45:30.660Z,3.776
2024-01-05T00:46:31.026Z,3.766
2024-01-05T00:47:31.459Z,3.800
2024-01-05T00:48:31.570Z,3.803
2024-01-05T00:49:31.607Z,3.728
2024-01-05T00:50:31.334Z,3.782
2024-01-05T00:52:31.357Z,3.830
2024-01-05T00:53:30.725Z,3.806
2024-01-05T00:54:31.195Z,3.832
2024-01-05T00:56:31.222Z,3.848
2024-01-05T00:57:30.690Z,3.843
2024-01-05T00:58:31.144Z,3.795
2024-01-05T00:59:30.404Z,3.840
2024-01-05T01:00:31.396Z,3.790
2024-01-05T01:01:31.505Z,3.894
2024-01-05T01:02:30.836Z,3.987
2024-01-05T01:03:31.628Z,3.958
2024-01-05T01:04:32.029Z,3.995
2024-01-05T01:05:31.136Z,3.985
2024-01-05T01:06:30.566Z,3.968
2024-01-05T01:07:31.277Z,3.982
2024-01-05T01:08:30.719Z,3.985
2024-01-05T01:09:31.236Z,3.985
2024-01-05T01:10:30.734Z,3.920
2024-01-05T01:11:34.158Z,3.947
2024-01-05T01:14:31.194Z,3.800
2024-01-05T01:15:30.636Z,3.798
2024-01-05T01:16:31.056Z,3.758
2024-01-05T01:17:31.749Z,3.747
2024-01-05T01:18:30.965Z,3.779
2024-01-05T01:19:31.261Z,3.739
2024-01-05T01:20:30.840Z,3.720
2024-01-05T01:21:31.193Z,3.717
2024-01-05T01:23:30.936Z,3.723
2024-01-05T01:24:31.542Z,3.712
2024-01-05T01:25:30.958Z,3.717
2024-01-05T01:26:31.210Z,3.739
2024-01-05T01:27:30.790Z,3.768
2024-01-05T01:28:31.216Z,3.766
2024-01-05T01:29:30.464Z,3.755
2024-01-05T01:30:31.256Z,3.739
2024-01-05T01:31:31.009Z,3.728
2024-01-05T01:33:31.772Z,3.693
2024-01-05T01:34:30.830Z,3.661
2024-01-05T01:35:31.466Z,3.648
2024-01-05T01:36:31.064Z,3.613
2024-01-05T01:37:30.620Z,3.592
2024-01-05T01:38:30.961Z,3.592
2024-01-05T01:39:31.648Z,3.616
2024-01-05T01:40:31.068Z,3.640
2024-01-05T01:41:31.463Z,3.637
2024-01-05T01:42:31.011Z,3.581
2024-01-05T01:43:31.396Z,3.605
2024-01-05T01:44:30.711Z,3.589
2024-01-05T01:45:31.243Z,3.600
2024-01-05T01:46:30.723Z,3.584
2024-01-05T01:47:31.060Z,3.619
2024-01-05T01:48:31.339Z,3.632
2024-01-05T01:49:31.588Z,3.637
2024-01-05T01:50:31.004Z,3.600
2024-01-05T01:51:31.506Z,3.611
2024-01-05T01:52:31.088Z,3.669
2024-01-05T01:53:30.392Z,3.693
2024-01-05T01:54:34.214Z,3.656
2024-01-05T01:57:30.763Z,3.640
2024-01-05T01:58:31.103Z,3.693
2024-01-05T01:59:31.286Z,3.696
2024-01-05T02:00:30.797Z,3.720
2024-01-05T02:01:31.393Z,3.707
2024-01-05T02:02:30.624Z,3.736
2024-01-05T02:03:31.164Z,3.787
2024-01-05T02:04:31.571Z,3.750
2024-01-05T02:05:31.596Z,3.734
2024-01-05T02:06:31.198Z,3.685
2024-01-05T02:07:30.576Z,3.699
2024-01-05T02:08:30.873Z,3.643
2024-01-05T02:09:31.512Z,3.653
2024-01-05T02:10:30.870Z,3.701
2024-01-05T02:11:31.137Z,3.701
2024-01-05T02:14:57.419Z,3.715
2024-01-05T02:16:46.521Z,3.685
2024-01-05T02:17:45.374Z,3.693
2024-01-05T02:18:45.896Z,3.677
2024-01-05T02:19:44.740Z,3.656
2024-01-05T02:20:44.425Z,3.653
2024-01-05T02:21:44.919Z,3.688
2024-01-05T02:22:45.174Z,3.648
2024-01-05T02:23:44.462Z,3.693
2024-01-05T02:24:44.811Z,3.675
2024-01-05T02:25:45.143Z,3.653
2024-01-05T02:26:45.618Z,3.701
2024-01-05T02:28:45.007Z,3.613
2024-01-05T02:29:45.291Z,3.616
2024-01-05T02:30:44.975Z,3.600
2024-01-05T02:31:44.699Z,3.611
2024-01-05T02:32:45.128Z,3.584
2024-01-05T02:33:45.494Z,3.573
2024-01-05T02:34:44.579Z,3.592
2024-01-05T02:35:45.052Z,3.581
2024-01-05T02:36:45.701Z,3.563
2024-01-05T02:37:45.452Z,3.539
2024-01-05T02:38:44.620Z,3.539
2024-01-05T02:39:45.011Z,3.565
2024-01-05T02:40:45.333Z,3.568
2024-01-05T02:41:44.663Z,3.528
2024-01-05T02:42:45.007Z,3.488
2024-01-05T02:43:45.342Z,3.474
2024-01-05T02:44:44.567Z,3.434
2024-01-05T02:45:45.231Z,3.472
2024-01-05T02:46:45.133Z,3.386
2024-01-05T02:47:44.668Z,3.360
2024-01-05T02:48:45.320Z,3.330
2024-01-05T02:49:45.822Z,3.285
2024-01-05T02:50:44.500Z,3.328
2024-01-05T02:51:45.193Z,3.312
2024-01-05T02:52:44.510Z,3.290
2024-01-05T02:53:44.839Z,3.285
2024-01-05T02:54:45.228Z,3.288
2024-01-05T02:55:44.455Z,3.309
2024-01-05T02:56:45.329Z,3.296
2024-01-05T02:58:45.251Z,3.288
2024-01-05T03:00:45.344Z,3.285
2024-01-05T03:01:45.320Z,3.282
2024-01-05T03:02:44.459Z,3.237
2024-01-05T03:03:46.574Z,3.261
2024-01-05T03:04:45.097Z,3.264
2024-01-05T03:05:45.169Z,3.248
2024-01-05T03:06:45.489Z,3.205
2024-01-05T03:09:44.630Z,3.135
2024-01-05T03:10:44.908Z,3.141
2024-01-05T03:11:45.189Z,3.215
2024-01-05T03:12:44.485Z,3.226
2024-01-05T03:13:44.850Z,3.221
2024-01-05T03:14:45.211Z,3.266
2024-01-05T03:15:44.803Z,3.245
2024-01-05T03:16:45.833Z,3.248
2024-01-05T03:17:45.680Z,3.314
2024-01-05T03:18:45.593Z,3.325
2024-01-05T03:19:45.789Z,3.341
2024-01-05T03:20:45.352Z,3.322
2024-01-05T03:21:44.745Z,3.272
2024-01-05T03:22:44.988Z,3.296
2024-01-05T03:23:45.296Z,3.272
2024-01-05T03:27:45.568Z,3.392
2024-01-05T03:30:44.855Z,3.499
2024-01-05T03:31:45.395Z,3.472
2024-01-05T03:32:45.074Z,3.515
2024-01-05T03:33:45.339Z,3.499
2024-01-05T03:34:45.530Z,3.523
2024-01-05T03:35:44.816Z,3.565
2024-01-05T03:36:46.541Z,3.557
2024-01-05T03:37:45.064Z,3.565
2024-01-05T03:38:45.547Z,3.581
2024-01-05T03:39:44.942Z,3.555
2024-01-05T03:40:45.256Z,3.557
2024-01-05T03:41:44.541Z,3.555
2024-01-05T03:42:45.390Z,3.557
2024-01-05T03:43:44.568Z,3.544
2024-01-05T03:44:44.893Z,3.557
2024-01-05T03:45:45.584Z,3.541
2024-01-05T03:46:45.360Z,3.515
2024-01-05T03:48:45.469Z,3.480
2024-01-05T03:49:46.033Z,3.440
2024-01-05T03:50:44.505Z,3.418
2024-01-05T03:51:44.954Z,3.402
2024-01-05T03:52:45.272Z,3.445
2024-01-05T03:53:44.485Z,3.408
2024-01-05T03:54:44.808Z,3.426
2024-01-05T03:55:45.084Z,3.421
2024-01-05T03:56:45.129Z,3.381
2024-01-05T03:58:44.889Z,3.309
2024-01-05T03:59:45.164Z,3.352
2024-01-05T04:00:45.152Z,3.312
2024-01-05T04:02:45.534Z,3.264
2024-01-05T04:03:46.150Z,3.261
2024-01-05T04:04:45.315Z,3.253
2024-01-05T04:05:45.468Z,3.226
2024-01-05T04:06:46.562Z,3.210
2024-01-05T04:07:44.439Z,3.253
2024-01-05T04:08:44.673Z,3.181
2024-01-05T04:09:45.048Z,3.162
2024-01-05T04:10:45.461Z,3.130
2024-01-05T04:11:44.779Z,3.157
2024-01-05T04:12:45.320Z,3.178
2024-01-05T04:13:44.673Z,3.215
2024-01-05T04:14:44.884Z,3.207
2024-01-05T04:15:46.883Z,3.234
2024-01-05T04:16:45.878Z,3.248
2024-01-05T04:17:44.586Z,3.245
2024-01-05T04:18:45.529Z,3.239
2024-01-05T04:19:45.846Z,3.229
2024-01-05T04:21:44.774Z,3.293
2024-01-05T04:22:45.036Z,3.296
2024-01-05T04:23:45.358Z,3.298
2024-01-05T04:24:44.821Z,3.306
2024-01-05T04:25:45.043Z,3.274
2024-01-05T04:26:45.950Z,3.264
2024-01-05T04:27:44.524Z,3.296
2024-01-05T04:28:44.854Z,3.309
2024-01-05T04:29:45.144Z,3.317
2024-01-05T04:30:44.953Z,3.296
2024-01-05T04:32:45.471Z,3.285
2024-01-05T04:33:45.757Z,3.264
2024-01-05T04:34:44.885Z,3.314
2024-01-05T04:35:44.404Z,3.277
2024-01-05T04:36:44.976Z,3.215
2024-01-05T04:37:44.700Z,3.239
2024-01-05T04:38:45.164Z,3.223
2024-01-05T04:39:44.760Z,3.218
2024-01-05T04:40:45.084Z,3.269
2024-01-05T04:41:44.390Z,3.229
2024-01-05T04:42:44.978Z,3.215
2024-01-05T04:43:45.254Z,3.250
2024-01-05T04:44:44.498Z,3.264
2024-01-05T04:45:45.271Z,3.258
2024-01-05T04:46:45.868Z,3.264
2024-01-05T04:47:45.411Z,3.210
2024-01-05T04:48:45.404Z,3.239
2024-01-05T04:50:44.530Z,3.231
2024-01-05T04:51:48.298Z,3.248
2024-01-05T04:52:44.730Z,3.226
2024-01-05T04:53:45.060Z,3.194
2024-01-05T04:54:44.563Z,3.218
2024-01-05T04:55:44.804Z,3.213
2024-01-05T04:56:45.082Z,3.221
2024-01-05T04:57:47.927Z,3.165
2024-01-05T04:58:45.265Z,3.202
2024-01-05T04:59:44.469Z,3.181
2024-01-05T05:00:45.256Z,3.183
2024-01-05T05:01:45.663Z,3.191
2024-01-05T05:02:45.439Z,3.178
2024-01-05T05:03:45.442Z,3.175
2024-01-05T05:04:45.942Z,3.205
2024-01-05T05:05:45.478Z,3.194
2024-01-05T05:06:45.494Z,3.194
2024-01-05T05:07:44.738Z,3.226
2024-01-05T05:08:45.088Z,3.213
2024-01-05T05:09:44.541Z,3.221
2024-01-05T05:10:44.982Z,3.280
2024-01-05T05:12:44.863Z,3.237
2024-01-05T05:13:45.078Z,3.237
2024-01-05T05:14:45.317Z,3.245
2024-01-05T05:15:45.081Z,3.325
2024-01-05T05:17:45.088Z,3.181
2024-01-05T05:18:46.130Z,3.213
2024-01-05T05:19:45.128Z,3.159
2024-01-05T05:20:44.764Z,3.167
2024-01-05T05:21:45.982Z,3.127
2024-01-05T05:22:44.457Z,3.114
2024-01-05T05:23:44.701Z,3.181
2024-01-05T05:24:45.089Z,3.210
2024-01-05T05:25:45.529Z,3.189
2024-01-05T05:27:45.435Z,3.215
2024-01-05T05:28:44.714Z,3.202
2024-01-05T05:29:44.923Z,3.210
2024-01-05T05:30:45.890Z,3.221
2024-01-05T05:31:45.214Z,3.231
2024-01-05T05:33:45.242Z,3.194
2024-01-05T05:34:45.580Z,3.202
2024-01-05T05:35:45.152Z,3.229
2024-01-05T05:36:44.598Z,3.258
2024-01-05T05:37:44.826Z,3.250
2024-01-05T05:38:44.990Z,3.272
2024-01-05T05:39:45.406Z,3.245
2024-01-05T05:40:44.680Z,3.221
2024-01-05T05:41:45.741Z,3.250
2024-01-05T05:42:45.445Z,3.264
2024-01-05T05:43:44.694Z,3.239
2024-01-05T05:44:44.903Z,3.269
2024-01-05T05:45:45.462Z,3.221
2024-01-05T05:46:44.691Z,3.210
2024-01-05T05:47:45.720Z,3.226
2024-01-05T05:48:46.055Z,3.282
2024-01-05T05:49:45.291Z,3.210
2024-01-05T05:53:44.399Z,3.285
2024-01-05T05:54:44.995Z,3.250
2024-01-05T05:55:45.158Z,3.245
2024-01-05T05:56:44.372Z,3.221
2024-01-05T05:57:44.965Z,3.213
2024-01-05T05:58:45.390Z,3.159
2024-01-05T05:59:44.657Z,3.223
2024-01-05T06:00:45.316Z,3.189
2024-01-05T06:01:45.437Z,3.175
2024-01-05T06:02:44.923Z,3.146
2024-01-05T06:03:45.617Z,3.149
2024-01-05T06:04:45.251Z,3.135
2024-01-05T06:05:44.777Z,3.125
2024-01-05T06:06:45.497Z,3.178
2024-01-05T06:08:45.007Z,3.079
2024-01-05T06:09:45.582Z,3.130
2024-01-05T06:10:44.834Z,3.077
2024-01-05T06:11:45.819Z,3.146
2024-01-05T06:12:44.544Z,3.119
2024-01-05T06:13:47.866Z,3.098
2024-01-05T06:14:44.980Z,3.117
2024-01-05T06:15:45.502Z,3.133
2024-01-05T06:16:44.808Z,3.109
2024-01-05T06:17:45.351Z,3.058
2024-01-05T06:18:45.604Z,3.090
2024-01-05T06:19:45.625Z,3.021
2024-01-05T06:20:45.216Z,3.013
2024-01-05T06:21:44.654Z,3.037
2024-01-05T06:22:44.852Z,3.093
2024-01-05T06:23:45.288Z,3.074
2024-01-05T06:24:44.933Z,3.077
2024-01-05T06:25:45.218Z,3.034
2024-01-05T06:26:44.512Z,3.045
2024-01-05T06:27:49.189Z,3.109
2024-01-05T06:28:44.400Z,3.053
2024-01-05T06:29:44.723Z,3.066
2024-01-05T06:30:45.575Z,3.071
2024-01-05T06:31:46.325Z,3.023
2024-01-05T06:32:45.046Z,3.055
2024-01-05T06:33:45.324Z,3.002
2024-01-05T06:34:45.830Z,2.999
2024-01-05T06:35:45.272Z,3.031
2024-01-05T06:36:44.623Z,3.045
2024-01-05T06:37:45.074Z,3.063
2024-01-05T06:38:45.337Z,3.053
2024-01-05T06:39:44.827Z,3.074
2024-01-05T06:40:45.057Z,3.029
2024-01-05T06:41:46.025Z,3.015
2024-01-05T06:42:44.858Z,3.029
2024-01-05T06:43:44.387Z,3.005
2024-01-05T06:44:44.661Z,2.980
2024-01-05T06:45:45.274Z,2.948
2024-01-05T06:46:44.563Z,2.980
2024-01-05T06:47:44.981Z,2.943
2024-01-05T06:48:45.352Z,2.940
2024-01-05T06:49:46.081Z,2.938
2024-01-05T06:50:45.469Z,2.927
2024-01-05T06:51:46.537Z,2.938
2024-01-05T06:52:44.335Z,2.879
2024-01-05T06:53:44.571Z,2.900
2024-01-05T06:54:44.943Z,2.924
2024-01-05T06:55:45.185Z,2.940
2024-01-05T06:56:44.462Z,2.943
2024-01-05T06:57:44.822Z,2.978
2024-01-05T06:58:45.029Z,2.972
2024-01-05T06:59:45.297Z,2.983
2024-01-05T07:00:45.172Z,2.959
2024-01-05T07:01:45.104Z,2.967
2024-01-05T07:04:44.923Z,2.991
2024-01-05T07:05:45.544Z,2.996
2024-01-05T07:06:45.268Z,3.034
2024-01-05T07:07:44.486Z,3.029
2024-01-05T07:08:44.740Z,3.031
2024-01-05T07:09:45.171Z,3.007
2024-01-05T07:10:44.462Z,3.034
2024-01-05T07:11:45.806Z,3.007
2024-01-05T07:12:45.288Z,2.980
2024-01-05T07:13:44.760Z,3.007
2024-01-05T07:14:46.425Z,3.010
2024-01-05T07:15:44.934Z,2.978
2024-01-05T07:16:45.349Z,2.975
2024-01-05T07:17:44.880Z,2.988
2024-01-05T07:18:45.186Z,2.972
2024-01-05T07:21:45.910Z,2.978
2024-01-05T07:22:44.334Z,2.959
2024-01-05T07:23:44.594Z,2.940
2024-01-05T07:24:44.931Z,2.959
2024-01-05T07:26:44.860Z,2.964
2024-01-05T07:27:45.134Z,2.906
2024-01-05T07:28:44.347Z,2.978
2024-01-05T07:29:44.592Z,2.922
2024-01-05T07:30:45.029Z,2.970
2024-01-05T07:31:44.952Z,2.975
2024-01-05T07:32:45.460Z,2.991
2024-01-05T07:33:45.345Z,2.980
2024-01-05T07:35:44.352Z,2.994
2024-01-05T07:36:44.865Z,2.991
2024-01-05T07:37:45.078Z,3.010
2024-01-05T07:38:45.378Z,3.021
2024-01-05T07:39:44.708Z,3.010
2024-01-05T07:40:45.040Z,2.996
2024-01-05T07:41:45.923Z,3.037
2024-01-05T07:42:44.659Z,3.018
2024-01-05T07:43:44.888Z,3.031
2024-01-05T07:44:45.073Z,3.013
2024-01-05T07:45:45.617Z,3.034
2024-01-05T07:46:44.833Z,3.045
2024-01-05T07:47:45.517Z,3.045
2024-01-05T07:48:45.711Z,3.042
2024-01-05T07:49:44.725Z,3.071
2024-01-05T07:50:45.293Z,3.082
2024-01-05T07:51:49.072Z,3.114
2024-01-05T07:53:45.171Z,3.109
2024-01-05T07:54:44.637Z,3.149
2024-01-05T07:55:44.962Z,3.186
2024-01-05T07:56:45.562Z,3.189
2024-01-05T07:57:48.736Z,3.207
2024-01-05T07:58:44.391Z,3.218
2024-01-05T07:59:44.644Z,3.213
2024-01-05T08:00:45.688Z,3.248
2024-01-05T08:01:44.984Z,3.266
2024-01-05T08:03:45.320Z,3.304
2024-01-05T08:04:44.948Z,3.370
2024-01-05T08:05:50.154Z,3.376
2024-01-05T08:06:45.462Z,3.408
2024-01-05T08:07:44.940Z,3.413
2024-01-05T08:08:45.149Z,3.442
2024-01-05T08:09:44.876Z,3.445
2024-01-05T08:10:45.230Z,3.461
2024-01-05T08:11:45.600Z,3.456
2024-01-05T08:12:45.373Z,3.445
2024-01-05T08:13:44.710Z,3.488
2024-01-05T08:14:44.943Z,3.528
2024-01-05T08:15:45.742Z,3.474
2024-01-05T08:16:45.112Z,3.499
2024-01-05T08:17:44.572Z,3.539
2024-01-05T08:18:45.486Z,3.549
2024-01-05T08:19:45.736Z,3.555
2024-01-05T08:20:45.169Z,3.600
2024-01-05T08:21:45.022Z,3.592
2024-01-05T08:23:44.960Z,3.581
2024-01-05T08:24:45.665Z,3.653
2024-01-05T08:25:45.507Z,3.600
2024-01-05T08:26:44.782Z,3.589
2024-01-05T08:27:45.366Z,3.627
2024-01-05T08:28:44.684Z,3.635
2024-01-05T08:29:44.940Z,3.669
2024-01-05T08:30:45.715Z,3.659
2024-01-05T08:31:45.998Z,3.701
2024-01-05T08:34:45.498Z,3.656
2024-01-05T08:36:45.465Z,3.701
2024-01-05T08:37:45.336Z,3.699
2024-01-05T08:38:44.562Z,3.709
2024-01-05T08:39:44.943Z,3.720
2024-01-05T08:40:45.371Z,3.766
2024-01-05T08:41:44.679Z,3.758
2024-01-05T08:42:45.200Z,3.814
2024-01-05T08:43:45.164Z,3.832
2024-01-05T08:44:44.643Z,3.840
2024-01-05T08:45:45.589Z,3.819
2024-01-05T08:46:45.163Z,3.840
2024-01-05T08:48:45.284Z,3.880
2024-01-05T08:49:44.978Z,3.920
2024-01-05T08:50:44.353Z,3.947
2024-01-05T08:51:44.941Z,3.942
2024-01-05T08:52:45.269Z,3.968
2024-01-05T08:53:44.543Z,4.022
2024-01-05T08:54:46.793Z,4.019
2024-01-05T08:55:44.622Z,4.057
2024-01-05T08:56:44.911Z,4.059
2024-01-05T08:57:45.466Z,4.158
2024-01-05T08:58:44.804Z,4.142
2024-01-05T08:59:45.094Z,4.201
2024-01-05T09:00:44.938Z,4.198
2024-01-05T09:01:48.638Z,4.276
2024-01-05T09:02:45.009Z,4.332
2024-01-05T09:04:44.717Z,4.449
2024-01-05T09:05:45.424Z,4.540
2024-01-05T09:06:45.301Z,4.561
2024-01-05T09:07:49.022Z,4.561
2024-01-05T09:08:45.258Z,4.591
2024-01-05T09:09:44.645Z,4.647
2024-01-05T09:10:45.011Z,4.700
2024-01-05T09:11:45.185Z,4.722
2024-01-05T09:12:44.621Z,4.673
2024-01-05T09:13:45.317Z,4.791
2024-01-05T09:14:44.580Z,4.863
2024-01-05T09:15:44.999Z,4.831
2024-01-05T09:16:44.675Z,4.866
2024-01-05T09:17:45.048Z,4.836
2024-01-05T09:18:45.984Z,4.911
2024-01-05T09:19:45.059Z,4.981
2024-01-05T09:20:44.567Z,4.994
2024-01-05T09:21:45.110Z,5.066
2024-01-05T09:24:45.151Z,5.042
2024-01-05T09:25:49.497Z,5.069
2024-01-05T09:26:44.804Z,5.074
2024-01-05T09:27:45.545Z,5.127
2024-01-05T09:28:44.910Z,5.114
2024-01-05T09:29:45.168Z,5.186
2024-01-05T09:30:44.741Z,5.192
2024-01-05T09:31:45.433Z,5.213
2024-01-05T09:32:45.014Z,5.234
2024-01-05T09:33:45.101Z,5.218
2024-01-05T09:34:45.334Z,5.232
2024-01-05T09:37:44.557Z,5.248
2024-01-05T09:38:44.802Z,5.290
2024-01-05T09:39:45.495Z,5.338
2024-01-05T09:40:44.894Z,5.421
2024-01-05T09:41:45.170Z,5.360
2024-01-05T09:42:44.609Z,5.501
2024-01-05T09:43:45.142Z,5.616
2024-01-05T09:44:44.443Z,5.576
2024-01-05T09:45:44.860Z,5.827
2024-01-05T09:46:44.317Z,5.945
2024-01-05T09:47:48.278Z,6.030
2024-01-05T09:48:58.076Z,6.209
2024-01-05T09:49:45.101Z,6.169
2024-01-05T09:50:45.453Z,6.228
2024-01-05T09:51:45.071Z,6.126
2024-01-05T09:52:44.342Z,6.089
2024-01-05T09:53:49.027Z,5.950
2024-01-05T09:54:45.342Z,6.102
2024-01-05T09:56:45.004Z,6.051
2024-01-05T09:57:45.738Z,6.193
2024-01-05T09:58:45.037Z,6.172
2024-01-05T09:59:49.373Z,6.348
2024-01-05T10:00:44.742Z,6.329
2024-01-05T10:03:45.613Z,6.182
2024-01-05T10:04:45.322Z,6.276
2024-01-05T10:06:45.276Z,6.382
2024-01-05T10:07:44.713Z,6.334
2024-01-05T10:08:45.038Z,6.572
2024-01-05T10:09:45.931Z,6.772
2024-01-05T10:10:45.257Z,6.698
2024-01-05T10:11:47.872Z,6.810
2024-01-05T10:12:45.623Z,6.879
2024-01-05T10:13:44.895Z,7.039
2024-01-05T10:14:45.173Z,7.063
2024-01-05T10:16:44.834Z,7.301
2024-01-05T10:17:45.466Z,7.368
2024-01-05T10:18:46.036Z,7.357
2024-01-05T10:19:45.044Z,7.389
2024-01-05T10:20:44.675Z,7.354
2024-01-05T10:21:45.284Z,7.293
2024-01-05T10:24:44.966Z,7.536
2024-01-05T10:25:45.371Z,7.488
2024-01-05T10:26:44.581Z,7.589
2024-01-05T10:27:45.186Z,7.878
2024-01-05T10:28:44.720Z,7.891
2024-01-05T10:29:45.664Z,7.798
2024-01-05T10:30:44.806Z,7.803
2024-01-05T10:31:45.474Z,7.963
2024-01-05T10:32:44.885Z,7.974
2024-01-05T10:33:45.974Z,8.241
2024-01-05T10:34:45.271Z,8.367
2024-01-05T10:35:48.450Z,8.356
2024-01-05T10:36:44.885Z,8.417
2024-01-05T10:37:45.378Z,8.425
2024-01-05T10:38:44.589Z,8.457
2024-01-05T10:39:45.071Z,8.393
2024-01-05T10:40:44.708Z,8.230
2024-01-05T10:41:48.508Z,7.934
2024-01-05T10:42:45.328Z,8.086
2024-01-05T10:43:44.624Z,8.025
2024-01-05T10:44:44.962Z,7.856
2024-01-05T10:45:45.830Z,7.905
2024-01-05T10:46:44.573Z,7.792
2024-01-05T10:47:47.851Z,7.718
2024-01-05T10:48:44.887Z,7.603
2024-01-05T10:49:45.030Z,7.493
2024-01-05T10:50:45.263Z,7.584
2024-01-05T10:51:44.907Z,7.589
2024-01-05T10:52:45.221Z,7.541
2024-01-05T10:53:44.629Z,7.541
2024-01-05T10:54:45.215Z,7.715
2024-01-05T10:55:44.654Z,7.779
2024-01-05T10:56:44.902Z,7.675
2024-01-05T10:57:45.891Z,7.619
2024-01-05T10:58:45.188Z,7.613
2024-01-05T10:59:44.436Z,7.656
2024-01-05T11:00:45.164Z,7.659
2024-01-05T11:04:44.790Z,7.707
2024-01-05T11:05:45.711Z,7.702
2024-01-05T11:06:45.405Z,7.632
2024-01-05T11:07:45.170Z,7.541
2024-01-05T11:08:44.499Z,7.549
2024-01-05T11:09:45.138Z,7.557
2024-01-05T11:10:44.624Z,7.552
2024-01-05T11:11:44.849Z,7.584
2024-01-05T11:12:45.668Z,7.520
2024-01-05T11:13:45.361Z,7.595
2024-01-05T11:14:44.732Z,7.640
2024-01-05T11:15:45.362Z,7.613
2024-01-05T11:16:44.689Z,7.659
2024-01-05T11:17:45.296Z,7.571
2024-01-05T11:18:45.741Z,7.549
2024-01-05T11:19:45.068Z,7.549
2024-01-05T11:20:45.158Z,7.557
2024-01-05T11:21:45.681Z,7.704
2024-01-05T11:22:44.907Z,7.622
2024-01-05T11:23:45.281Z,7.560
2024-01-05T11:24:44.839Z,7.643
2024-01-05T11:25:44.462Z,7.664
2024-01-05T11:26:44.770Z,7.718
2024-01-05T11:27:45.511Z,7.686
2024-01-05T11:28:45.028Z,7.635
2024-01-05T11:29:45.346Z,7.622
2024-01-05T11:30:45.309Z,7.605
2024-01-05T11:31:45.455Z,7.595
2024-01-05T11:32:44.950Z,7.712
2024-01-05T11:33:45.906Z,7.611
2024-01-05T11:34:45.442Z,7.560
2024-01-05T11:35:47.938Z,7.576
2024-01-05T11:37:44.777Z,7.613
2024-01-05T11:38:44.989Z,7.571
2024-01-05T11:39:45.766Z,7.528
2024-01-05T11:40:46.217Z,7.584
2024-01-05T11:41:44.763Z,7.662
2024-01-05T11:42:45.697Z,7.686
2024-01-05T11:43:45.125Z,7.630
2024-01-05T11:44:44.437Z,7.744
2024-01-05T11:45:45.221Z,7.771
2024-01-05T11:46:45.203Z,7.734
2024-01-05T11:47:44.985Z,7.723
2024-01-05T11:48:47.256Z,7.662
2024-01-05T11:49:46.086Z,7.739
2024-01-05T11:50:44.736Z,7.819
2024-01-05T11:51:45.301Z,7.910
2024-01-05T11:54:44.807Z,8.089
2024-01-05T11:55:45.098Z,8.041
2024-01-05T11:56:45.352Z,7.963
2024-01-05T11:57:44.740Z,7.966
2024-01-05T11:58:45.564Z,8.041
2024-01-05T11:59:45.933Z,7.945
2024-01-05T12:00:45.801Z,7.990
2024-01-05T12:01:44.664Z,8.030
2024-01-05T12:02:44.918Z,8.113
2024-01-05T12:03:46.504Z,8.078
2024-01-05T12:04:45.545Z,8.097
2024-01-05T12:06:45.245Z,8.198
2024-01-05T12:07:44.503Z,8.257
2024-01-05T12:08:45.799Z,8.217
2024-01-05T12:09:45.287Z,8.353
2024-01-05T12:10:44.500Z,8.380
2024-01-05T12:11:44.750Z,8.305
2024-01-05T12:12:45.431Z,8.401
2024-01-05T12:13:45.208Z,8.444
2024-01-05T12:16:00.851Z,8.415
2024-01-05T12:17:48.406Z,8.377
2024-01-05T12:18:50.847Z,8.351
2024-01-05T12:19:45.360Z,8.420
2024-01-05T12:20:45.209Z,8.391
2024-01-05T12:21:44.727Z,8.415
2024-01-05T12:22:45.212Z,8.385
2024-01-05T12:23:47.621Z,8.383
2024-01-05T12:25:44.562Z,8.353
2024-01-05T12:26:44.872Z,8.396
2024-01-05T12:27:45.767Z,8.401
2024-01-05T12:28:45.213Z,8.345
2024-01-05T12:29:44.505Z,8.433
2024-01-05T12:30:48.981Z,8.428
2024-01-05T12:31:44.741Z,8.423
2024-01-05T12:32:45.388Z,8.540
2024-01-05T12:33:45.765Z,8.572
2024-01-05T12:34:45.825Z,8.623
2024-01-05T12:35:45.189Z,8.666
2024-01-05T12:36:44.565Z,8.572
2024-01-05T12:37:45.004Z,8.655
2024-01-05T12:38:45.363Z,8.644
2024-01-05T12:39:44.782Z,8.655
2024-01-05T12:40:45.285Z,8.620
2024-01-05T12:41:44.722Z,8.708
2024-01-05T12:42:45.454Z,8.706
2024-01-05T12:43:44.865Z,8.772
2024-01-05T12:44:45.170Z,8.556
2024-01-05T12:45:44.773Z,8.679
2024-01-05T12:46:45.356Z,8.658
2024-01-05T12:47:44.988Z,8.770
2024-01-05T12:48:45.708Z,8.772
2024-01-05T12:50:45.107Z,8.658
2024-01-05T12:51:45.614Z,8.658
2024-01-05T12:52:45.103Z,8.631
2024-01-05T12:53:45.363Z,8.658
2024-01-05T12:54:44.945Z,8.666
2024-01-05T12:55:45.363Z,8.671
2024-01-05T12:56:44.578Z,8.615
2024-01-05T12:57:45.032Z,8.511
2024-01-05T12:58:45.809Z,8.634
2024-01-05T12:59:45.065Z,8.623
2024-01-05T13:00:45.673Z,8.604
2024-01-05T13:01:45.263Z,8.607
2024-01-05T13:02:45.657Z,8.540
2024-01-05T13:03:45.381Z,8.532
2024-01-05T13:04:50.038Z,8.615
2024-01-05T13:05:44.573Z,8.583
2024-01-05T13:06:45.390Z,8.593
2024-01-05T13:08:45.244Z,8.585
2024-01-05T13:09:45.113Z,8.593
2024-01-05T13:10:46.596Z,8.513
2024-01-05T13:11:44.824Z,8.481
2024-01-05T13:12:45.335Z,8.561
2024-01-05T13:13:44.893Z,8.593
2024-01-05T13:14:44.417Z,8.660
2024-01-05T13:15:44.830Z,8.569
2024-01-05T13:16:45.445Z,8.599
2024-01-05T13:17:44.660Z,8.569
2024-01-05T13:18:45.910Z,8.660
2024-01-05T13:19:45.968Z,8.666
2024-01-05T13:20:44.423Z,8.658
2024-01-05T13:21:45.041Z,8.666
2024-01-05T13:22:44.554Z,8.631
2024-01-05T13:23:45.356Z,8.634
2024-01-05T13:24:50.237Z,8.647
2024-01-05T13:27:44.960Z,8.711
2024-01-05T13:28:45.252Z,8.788
2024-01-05T13:31:45.990Z,8.690
2024-01-05T13:32:45.296Z,8.593
2024-01-05T13:33:45.614Z,8.636
2024-01-05T13:34:46.303Z,8.682
2024-01-05T13:35:44.922Z,8.655
2024-01-05T13:36:45.446Z,8.732
2024-01-05T13:37:44.796Z,8.703
2024-01-05T13:38:45.090Z,8.703
2024-01-05T13:39:46.046Z,8.650
2024-01-05T13:40:44.333Z,8.658
2024-01-05T13:41:44.597Z,8.703
2024-01-05T13:42:45.307Z,8.743
2024-01-05T13:43:44.640Z,8.698
2024-01-05T13:44:44.973Z,8.642
2024-01-05T13:45:45.413Z,8.700
2024-01-05T13:46:44.791Z,8.770
2024-01-05T13:47:45.501Z,8.647
2024-01-05T13:48:45.316Z,8.692
2024-01-05T13:49:45.129Z,8.732
2024-01-05T13:50:44.508Z,8.738
2024-01-05T13:51:44.921Z,8.711
2024-01-05T13:52:45.160Z,8.716
2024-01-05T13:54:46.407Z,8.708
2024-01-05T13:55:45.040Z,8.735
2024-01-05T13:56:45.311Z,8.743
2024-01-05T13:57:44.916Z,8.740
2024-01-05T13:58:45.416Z,8.842
2024-01-05T13:59:44.784Z,8.895
2024-01-05T14:00:45.724Z,8.818
2024-01-05T14:01:46.841Z,8.853
2024-01-05T14:02:45.140Z,8.887
2024-01-05T14:05:44.820Z,8.845
2024-01-05T14:06:45.477Z,8.898
2024-01-05T14:07:44.962Z,8.866
2024-01-05T14:08:45.248Z,8.879
2024-01-05T14:09:44.636Z,8.935
2024-01-05T14:10:44.873Z,8.935
2024-01-05T14:11:45.229Z,8.850
2024-01-05T14:12:44.574Z,8.909
2024-01-05T14:13:44.896Z,8.871